createdAt,value
2022-11-08T00:01:01.207Z,12.40
2022-11-08T00:06:18.978Z,13.70
2022-11-08T00:11:35.918Z,14.00
2022-11-08T00:16:34.538Z,15.50
2022-11-08T00:21:33.636Z,14.60
2022-11-08T00:26:33.231Z,13.80
2022-11-08T00:31:32.560Z,13.60
2022-11-08T00:36:31.841Z,15.20
2022-11-08T00:41:30.545Z,12.70
2022-11-08T00:54:13.497Z,12.30
2022-11-08T00:59:14.593Z,11.60
2022-11-08T01:04:18.782Z,15.80
2022-11-08T01:09:19.208Z,12.20
2022-11-08T01:14:18.841Z,15.00
2022-11-08T01:19:18.102Z,14.10
2022-11-08T01:24:17.181Z,12.20
2022-11-08T01:29:16.330Z,14.00
2022-11-08T01:34:15.840Z,12.70
2022-11-08T01:39:16.437Z,14.10
2022-11-08T01:44:21.974Z,12.60
2022-11-08T01:49:45.970Z,12.20
2022-11-08T01:54:58.694Z,13.10
2022-11-08T02:00:05.328Z,14.20
2022-11-08T02:05:25.145Z,12.40
2022-11-08T02:10:31.435Z,12.90
2022-11-08T02:15:30.664Z,13.60
2022-11-08T02:20:32.485Z,15.20
2022-11-08T02:25:33.219Z,15.60
2022-11-08T02:30:39.186Z,17.60
2022-11-08T02:35:38.448Z,15.60
2022-11-08T02:40:51.362Z,14.50
2022-11-08T02:45:51.119Z,12.50
2022-11-08T02:50:51.305Z,13.00
2022-11-08T02:55:51.248Z,13.60
2022-11-08T03:00:51.333Z,17.40
2022-11-08T03:05:50.490Z,14.10
2022-11-08T03:10:50.142Z,13.20
2022-11-08T03:15:49.936Z,14.40
2022-11-08T03:20:49.176Z,14.30
2022-11-08T03:25:49.065Z,15.60
2022-11-08T03:30:51.274Z,12.50
2022-11-08T03:35:51.223Z,13.50
2022-11-08T03:40:50.744Z,15.90
2022-11-08T03:45:50.076Z,13.80
2022-11-08T03:50:49.798Z,11.70
2022-11-08T03:55:48.252Z,15.30
2022-11-08T04:00:47.656Z,11.20
2022-11-08T04:05:47.190Z,16.30
2022-11-08T04:10:46.511Z,14.40
2022-11-08T04:15:46.677Z,14.40
2022-11-08T04:21:06.217Z,14.60
2022-11-08T04:26:08.780Z,14.90
2022-11-08T04:31:12.095Z,17.80
2022-11-08T04:36:16.760Z,14.70
2022-11-08T04:41:19.471Z,14.20
2022-11-08T04:46:22.705Z,14.70
2022-11-08T04:51:24.553Z,17.10
2022-11-08T04:56:27.494Z,11.90
2022-11-08T05:01:30.430Z,11.80
2022-11-08T05:06:32.663Z,13.20
2022-11-08T05:11:33.548Z,15.30
2022-11-08T05:16:34.938Z,13.70
2022-11-08T05:21:51.527Z,17.30
2022-11-08T05:26:51.926Z,16.90
2022-11-08T05:31:50.946Z,13.70
2022-11-08T05:36:50.121Z,16.60
2022-11-08T05:41:49.443Z,15.30
2022-11-08T05:46:48.715Z,17.50
2022-11-08T05:51:47.851Z,20.80
2022-11-08T05:56:47.839Z,17.80
2022-11-08T06:01:47.629Z,15.70
2022-11-08T06:06:47.407Z,13.70
2022-11-08T06:11:53.147Z,14.30
2022-11-08T06:16:52.795Z,13.80
2022-11-08T06:21:52.945Z,13.30
2022-11-08T06:26:52.308Z,13.10
2022-11-08T06:31:51.435Z,12.80
2022-11-08T06:36:50.666Z,15.10
2022-11-08T06:41:50.233Z,16.50
2022-11-08T06:46:49.407Z,16.50
2022-11-08T06:51:48.737Z,18.20
2022-11-08T06:56:50.297Z,15.50
2022-11-08T07:01:50.659Z,19.80
2022-11-08T07:06:52.772Z,19.20
2022-11-08T07:11:52.066Z,17.80
2022-11-08T07:16:51.803Z,14.70
2022-11-08T07:21:51.819Z,15.80
2022-11-08T07:26:51.331Z,17.20
2022-11-08T07:31:51.249Z,13.90
2022-11-08T07:36:51.092Z,15.00
2022-11-08T07:41:51.724Z,16.10
2022-11-08T07:46:50.678Z,15.60
2022-11-08T07:51:49.811Z,15.90
2022-11-08T07:56:49.445Z,14.40
2022-11-08T08:01:48.394Z,14.70
2022-11-08T08:06:47.163Z,16.10
2022-11-08T08:11:46.427Z,14.60
2022-11-08T08:16:46.912Z,15.80
2022-11-08T08:21:45.935Z,13.90
2022-11-08T08:26:44.878Z,12.40
2022-11-08T08:31:44.233Z,13.80
2022-11-08T08:36:44.559Z,12.10
2022-11-08T08:41:44.397Z,13.10
2022-11-08T08:46:43.675Z,13.80
2022-11-08T08:51:43.197Z,12.90
2022-11-08T08:56:43.477Z,9.30
2022-11-08T09:01:43.338Z,11.80
2022-11-08T09:06:42.721Z,11.90
2022-11-08T09:11:42.895Z,15.60
2022-11-08T09:16:43.167Z,11.90
2022-11-08T09:21:44.987Z,16.00
2022-11-08T09:26:44.045Z,10.50
2022-11-08T09:31:43.800Z,11.60
2022-11-08T09:36:43.133Z,11.40
2022-11-08T09:42:25.408Z,9.70
2022-11-08T09:47:32.292Z,11.50
2022-11-08T09:52:35.183Z,10.30
2022-11-08T09:57:56.707Z,11.60
2022-11-08T10:02:55.967Z,8.20
2022-11-08T10:08:07.672Z,6.90
2022-11-08T10:13:22.883Z,8.80
2022-11-08T10:19:18.717Z,10.50
2022-11-08T10:24:25.934Z,6.90
2022-11-08T10:29:30.958Z,8.20
2022-11-08T10:34:37.941Z,5.80
2022-11-08T10:39:51.373Z,9.10
2022-11-08T10:44:57.836Z,6.90
2022-11-08T10:50:03.394Z,9.50
2022-11-08T10:55:07.102Z,6.60
2022-11-08T11:00:31.862Z,6.70
2022-11-08T11:05:37.387Z,7.30
2022-11-08T11:10:40.407Z,7.50
2022-11-08T11:15:47.397Z,5.70
2022-11-08T11:21:03.629Z,9.90
2022-11-08T11:26:04.539Z,7.40
2022-11-08T11:31:18.243Z,8.00
2022-11-08T11:36:23.817Z,4.70
2022-11-08T11:41:32.726Z,6.40
2022-11-08T11:46:42.928Z,6.30
2022-11-08T11:51:42.164Z,5.10
2022-11-08T11:56:58.359Z,5.00
2022-11-08T12:02:31.728Z,6.60
2022-11-08T12:07:35.215Z,7.50
2022-11-08T12:12:51.824Z,5.20
2022-11-08T12:18:25.788Z,7.20
2022-11-08T12:24:12.661Z,7.50
2022-11-08T12:29:31.364Z,6.70
2022-11-08T12:34:44.867Z,6.40
2022-11-08T12:39:51.079Z,5.40
2022-11-08T12:45:31.455Z,5.30
2022-11-08T12:50:43.197Z,5.60
2022-11-08T12:55:48.536Z,5.90
2022-11-08T13:00:52.498Z,5.50
2022-11-08T13:06:15.319Z,5.70
2022-11-08T13:11:27.729Z,4.60
2022-11-08T13:16:36.358Z,7.00
2022-11-08T13:21:46.866Z,7.10
2022-11-08T13:26:46.390Z,5.10
2022-11-08T13:31:58.249Z,6.00
2022-11-08T13:37:23.298Z,6.00
2022-11-08T13:42:58.363Z,5.80
2022-11-08T13:48:01.923Z,6.00
2022-11-08T13:53:28.192Z,7.50
2022-11-08T13:58:41.990Z,12.20
2022-11-08T14:04:04.005Z,8.00
2022-11-08T14:09:19.312Z,6.80
2022-11-08T14:14:39.158Z,10.20
2022-11-08T14:19:42.781Z,11.00
2022-11-08T14:24:43.992Z,7.30
2022-11-08T14:29:43.699Z,7.80
2022-11-08T14:34:43.563Z,7.10
2022-11-08T14:39:46.909Z,8.70
2022-11-08T14:44:49.491Z,6.90
2022-11-08T14:49:53.370Z,7.30
2022-11-08T14:55:05.016Z,5.90
2022-11-08T15:00:16.041Z,7.30
2022-11-08T15:05:35.067Z,7.50
2022-11-08T15:10:34.845Z,6.20
2022-11-08T15:15:36.722Z,7.70
2022-11-08T15:20:36.580Z,7.00
2022-11-08T15:25:39.446Z,10.50
2022-11-08T15:30:44.535Z,8.50
2022-11-08T15:35:48.008Z,9.70
2022-11-08T15:40:55.675Z,9.80
2022-11-08T15:45:58.910Z,10.70
2022-11-08T15:50:59.617Z,13.40
2022-11-08T15:56:04.890Z,15.00
2022-11-08T16:01:05.943Z,11.90
2022-11-08T16:06:05.053Z,11.70
2022-11-08T16:11:04.906Z,10.80
2022-11-08T16:16:11.556Z,10.30
2022-11-08T16:21:13.464Z,10.40
2022-11-08T16:26:22.080Z,12.60
2022-11-08T16:31:23.393Z,13.90
2022-11-08T16:36:27.825Z,12.40
2022-11-08T16:41:28.221Z,14.50
2022-11-08T16:46:27.652Z,13.00
2022-11-08T16:51:26.996Z,11.50
2022-11-08T16:56:26.404Z,18.60
2022-11-08T17:01:33.757Z,18.30
2022-11-08T17:06:33.724Z,12.90
2022-11-08T17:11:33.549Z,15.40
2022-11-08T17:16:34.025Z,14.10
2022-11-08T17:21:49.842Z,15.70
2022-11-08T17:26:50.053Z,16.70
2022-11-08T17:31:50.687Z,18.30
2022-11-08T17:36:52.888Z,19.60
2022-11-08T17:41:52.893Z,14.90
2022-11-08T17:46:52.543Z,18.00
2022-11-08T17:51:52.318Z,16.20
2022-11-08T17:56:51.939Z,14.60
2022-11-08T18:01:51.749Z,13.10
2022-11-08T18:06:51.701Z,16.50
2022-11-08T18:11:52.471Z,17.80
2022-11-08T18:16:51.829Z,19.50
2022-11-08T18:21:51.796Z,19.70
2022-11-08T18:26:51.652Z,24.00
2022-11-08T18:31:50.960Z,20.20
2022-11-08T18:36:50.738Z,18.10
2022-11-08T18:41:50.196Z,22.20
2022-11-08T18:46:49.590Z,24.50
2022-11-08T18:51:52.755Z,24.10
2022-11-08T18:57:15.709Z,22.70
2022-11-08T19:02:15.682Z,25.40
2022-11-08T19:07:16.162Z,35.20
2022-11-08T19:12:17.031Z,30.40
2022-11-08T19:17:17.239Z,30.30
2022-11-08T19:22:16.163Z,27.30
2022-11-08T19:27:14.951Z,25.70
2022-11-08T19:32:14.443Z,26.80
2022-11-08T19:37:13.401Z,28.30
2022-11-08T19:42:17.292Z,26.20
2022-11-08T19:47:47.741Z,26.10
2022-11-08T19:52:51.086Z,29.90
2022-11-08T19:57:52.654Z,25.90
2022-11-08T20:02:55.301Z,27.00
2022-11-08T20:07:57.614Z,26.30
2022-11-08T20:12:58.530Z,29.70
2022-11-08T20:17:59.498Z,23.70
2022-11-08T20:23:00.817Z,22.40
2022-11-08T20:28:00.181Z,36.60
2022-11-08T20:32:59.866Z,29.80
2022-11-08T20:38:02.779Z,32.00
2022-11-08T20:43:02.562Z,23.30
2022-11-08T20:48:05.300Z,25.20
2022-11-08T20:53:04.852Z,25.40
2022-11-08T20:58:04.409Z,25.70
2022-11-08T21:03:03.951Z,24.00
2022-11-08T21:08:54.044Z,30.50
2022-11-08T21:13:25.256Z,27.50
2022-11-08T21:18:28.549Z,26.80
2022-11-08T21:23:28.733Z,24.20
2022-11-08T21:28:29.901Z,25.80
2022-11-08T21:33:30.400Z,24.70
2022-11-08T21:38:31.247Z,29.80
2022-11-08T21:43:36.234Z,27.90
2022-11-08T21:48:37.340Z,28.40
2022-11-08T21:53:45.197Z,27.20
2022-11-08T21:58:49.118Z,27.10
2022-11-08T22:03:49.141Z,25.80
2022-11-08T22:08:49.132Z,25.40
2022-11-08T22:13:47.906Z,23.10
2022-11-08T22:24:07.213Z,23.10
2022-11-08T22:29:06.933Z,27.30
2022-11-08T22:34:08.051Z,21.70
2022-11-08T22:39:18.547Z,30.40
2022-11-08T22:44:19.063Z,31.10
2022-11-08T22:49:19.387Z,26.30
2022-11-08T22:54:19.340Z,26.90
2022-11-08T22:59:19.014Z,27.90
2022-11-08T23:04:18.458Z,25.30
2022-11-08T23:09:17.792Z,25.90
2022-11-08T23:14:37.437Z,27.40
2022-11-08T23:19:55.837Z,26.70
2022-11-08T23:24:55.143Z,27.60
2022-11-08T23:30:12.213Z,20.50
2022-11-08T23:35:13.191Z,27.80
2022-11-08T23:40:35.286Z,27.30
2022-11-08T23:45:34.347Z,24.20
2022-11-08T23:50:33.375Z,25.50
2022-11-08T23:55:32.741Z,26.10
